Time;durP1;ratioP1;P1;durP2;ratioP2;P2;SDS_P1;SDS_P2;PMS_P1;PMS_P2;Temp;Humidity;BMP_temperature;BMP_pressure;BME280_temperature;BME280_humidity;BME280_pressure;Samples;Min_cycle;Max_cycle;Signal;HPM_P1;HPM_P2
2023/03/04 00:01:45;;;;;;;43.92;21.55;;;1.10;99.90;;;0.06;100.00;97734.25;4964391;28;20038;-39
2023/03/04 00:04:10;;;;;;;48.72;20.95;;;1.10;99.90;;;0.05;100.00;97733.34;4970245;28;20652;-39
2023/03/04 00:06:36;;;;;;;39.50;20.25;;;1.00;99.90;;;-0.01;100.00;97744.53;4968562;28;20041;-39
2023/03/04 00:09:03;;;;;;;36.17;18.75;;;1.00;99.90;;;-0.09;100.00;97740.13;4969634;28;20077;-39
2023/03/04 00:11:30;;;;;;;39.45;19.10;;;1.00;99.90;;;-0.10;100.00;97738.41;4963306;28;20045;-39
2023/03/04 00:13:56;;;;;;;39.25;19.13;;;0.90;99.90;;;-0.17;100.00;97739.19;4969360;28;20061;-39
2023/03/04 00:16:26;;;;;;;35.70;18.92;;;0.90;99.90;;;-0.17;100.00;97740.06;4961494;28;20066;-39
2023/03/04 00:18:52;;;;;;;38.45;18.63;;;0.80;99.90;;;-0.15;100.00;97735.75;4965100;28;20498;-39
2023/03/04 00:21:18;;;;;;;30.65;17.67;;;0.80;99.90;;;-0.17;100.00;97737.47;4965380;28;20034;-39
2023/03/04 00:23:44;;;;;;;39.92;19.38;;;0.80;99.90;;;-0.20;100.00;97742.59;4966170;28;20677;-39
2023/03/04 00:26:12;;;;;;;39.78;19.45;;;0.80;99.90;;;-0.22;100.00;97739.97;4961775;28;20041;-39
2023/03/04 00:28:38;;;;;;;39.20;19.13;;;0.80;99.90;;;-0.29;100.00;97727.81;4965508;28;20029;-39
2023/03/04 00:31:05;;;;;;;37.97;18.23;;;0.80;99.90;;;-0.25;100.00;97739.97;4963725;28;20037;-39
2023/03/04 00:33:31;;;;;;;38.03;20.15;;;0.80;99.90;;;-0.29;100.00;97733.00;4964651;28;20105;-39
2023/03/04 00:35:57;;;;;;;37.28;18.70;;;0.80;99.90;;;-0.22;100.00;97736.53;4961885;28;20053;-39
2023/03/04 00:38:22;;;;;;;37.95;19.10;;;0.70;99.90;;;-0.29;100.00;97739.91;4965499;28;20042;-39
2023/03/04 00:40:48;;;;;;;39.92;19.48;;;0.70;99.90;;;-0.33;100.00;97735.56;4962171;28;20100;-39
2023/03/04 00:43:14;;;;;;;41.67;19.85;;;0.70;99.90;;;-0.39;100.00;97732.03;4958750;28;20038;-39
2023/03/04 00:45:39;;;;;;;38.78;19.17;;;0.70;99.90;;;-0.45;100.00;97737.16;4959371;28;20378;-39
2023/03/04 00:48:05;;;;;;;37.50;18.42;;;0.60;99.90;;;-0.45;100.00;97741.44;4964915;28;20049;-39
2023/03/04 00:50:31;;;;;;;43.05;19.48;;;0.60;99.90;;;-0.42;100.00;97738.91;4963769;28;20100;-39
2023/03/04 00:52:56;;;;;;;36.80;18.83;;;0.60;99.90;;;-0.43;100.00;97739.75;4963464;28;21162;-39
2023/03/04 00:55:23;;;;;;;42.78;20.50;;;0.60;99.90;;;-0.45;100.00;97741.44;4965105;28;20534;-38
2023/03/04 00:57:49;;;;;;;41.88;19.95;;;0.60;99.90;;;-0.46;100.00;97740.59;4968288;28;20519;-39
2023/03/04 01:00:15;;;;;;;39.45;20.15;;;0.60;99.90;;;-0.43;100.00;97739.75;4964936;28;20106;-39
2023/03/04 01:02:41;;;;;;;42.03;20.92;;;0.50;99.90;;;-0.50;100.00;97732.75;4969180;28;20030;-39
2023/03/04 01:05:07;;;;;;;39.17;18.77;;;0.50;99.90;;;-0.54;100.00;97736.16;4966456;28;20519;-38
2023/03/04 01:07:33;;;;;;;46.05;19.23;;;0.50;99.90;;;-0.64;100.00;97730.88;4962012;28;20030;-39
2023/03/04 01:09:59;;;;;;;40.63;19.63;;;0.40;99.90;;;-0.69;100.00;97726.47;4966003;28;20482;-38
2023/03/04 01:12:24;;;;;;;40.78;18.88;;;0.40;99.90;;;-0.69;100.00;97729.06;4967092;28;20042;-38
2023/03/04 01:14:50;;;;;;;38.40;19.05;;;0.40;99.90;;;-0.77;100.00;97732.44;4961780;28;20770;-39
2023/03/04 01:17:16;;;;;;;35.80;18.67;;;0.30;99.90;;;-0.81;100.00;97728.06;4966903;28;20191;-39
2023/03/04 01:19:41;;;;;;;34.20;18.08;;;0.30;99.90;;;-0.81;100.00;97714.22;4964616;28;20046;-39
2023/03/04 01:22:07;;;;;;;38.60;16.90;;;0.20;99.90;;;-0.80;100.00;97726.34;4967604;28;20045;-39
2023/03/04 01:24:33;;;;;;;35.85;18.17;;;0.20;99.90;;;-0.86;100.00;97724.53;4968943;28;21106;-39
2023/03/04 01:26:59;;;;;;;38.22;18.73;;;0.20;99.90;;;-0.92;100.00;97721.00;4966072;28;20196;-40
2023/03/04 01:29:24;;;;;;;38.42;19.08;;;0.10;99.90;;;-0.95;100.00;97719.25;4997429;23;20371;-40
2023/03/04 01:31:50;;;;;;;39.28;17.70;;;0.10;99.90;;;-0.89;100.00;97724.50;4988152;28;20136;-40
2023/03/04 01:34:16;;;;;;;38.13;18.48;;;0.10;99.90;;;-0.97;100.00;97716.63;4992943;28;20477;-40
2023/03/04 01:36:42;;;;;;;38.47;18.35;;;0.10;99.90;;;-1.01;100.00;97721.72;4988069;28;20109;-40
2023/03/04 01:39:08;;;;;;;41.17;18.58;;;0.00;99.90;;;-1.05;100.00;97726.00;4981581;28;20038;-40
2023/03/04 01:41:34;;;;;;;37.75;18.30;;;0.00;99.90;;;-1.11;100.00;97722.44;4978987;28;20029;-40
2023/03/04 01:44:01;;;;;;;40.10;19.80;;;0.00;99.90;;;-1.16;100.00;97720.66;4973725;28;20037;-40
2023/03/04 01:46:28;;;;;;;35.97;17.98;;;-0.10;99.90;;;-1.10;100.00;97719.88;4979986;28;20042;-40
2023/03/04 01:48:54;;;;;;;34.17;16.75;;;-0.10;99.90;;;-1.13;100.00;97717.28;4973528;28;20160;-41
2023/03/04 01:51:21;;;;;;;32.45;17.17;;;-0.10;99.90;;;-1.10;100.00;97708.66;4983199;28;20054;-40
2023/03/04 01:53:50;;;;;;;37.80;17.80;;;-0.10;99.90;;;-1.11;100.00;97715.56;4984631;28;20112;-40
2023/03/04 01:56:34;;;;;;;37.38;17.58;;;-0.10;99.90;;;-1.22;100.00;97701.59;4986319;28;20041;-40
2023/03/04 01:59:14;;;;;;;36.70;17.58;;;-0.10;99.90;;;-1.22;100.00;97710.25;4982893;28;20134;-40
2023/03/04 02:01:53;;;;;;;41.95;18.38;;;-0.10;99.90;;;-1.29;100.00;97715.28;4978700;28;20030;-40
2023/03/04 02:04:24;;;;;;;35.00;17.33;;;-0.20;99.90;;;-1.32;100.00;97713.53;4985618;28;20030;-40
2023/03/04 02:06:50;;;;;;;39.75;17.80;;;-0.20;99.90;;;-1.29;100.00;97720.44;4982379;28;20540;-40
2023/03/04 02:09:17;;;;;;;38.67;18.45;;;-0.30;99.90;;;-1.31;100.00;97717.88;4985235;28;20551;-40
2023/03/04 02:11:44;;;;;;;36.75;17.35;;;-0.30;99.90;;;-1.33;100.00;97713.50;4997774;28;20038;-40
2023/03/04 02:14:12;;;;;;;35.70;17.58;;;-0.30;99.90;;;-1.38;100.00;97714.31;4987325;28;20025;-40
2023/03/04 02:16:38;;;;;;;35.95;18.05;;;-0.30;99.90;;;-1.33;100.00;97704.00;4982468;28;20038;-40
2023/03/04 02:19:20;;;;;;;33.90;17.27;;;-0.30;99.90;;;-1.40;100.00;97707.34;4984525;28;20046;-40
2023/03/04 02:21:46;;;;;;;35.58;16.63;;;-0.30;99.90;;;-1.55;100.00;97684.72;4985248;28;20038;-40
2023/03/04 02:24:17;;;;;;;36.63;17.42;;;-0.30;99.90;;;-1.46;100.00;97705.56;4984684;28;20049;-40
2023/03/04 02:26:43;;;;;;;35.65;17.35;;;-0.40;99.90;;;-1.50;100.00;97706.34;4982288;28;20475;-40
2023/03/04 02:29:15;;;;;;;38.15;17.10;;;-0.40;99.90;;;-1.52;100.00;97699.44;4985520;28;20164;-40
2023/03/04 02:31:50;;;;;;;34.58;16.98;;;-0.40;99.90;;;-1.46;100.00;97700.38;4979062;28;20046;-40
2023/03/04 02:34:22;;;;;;;33.55;16.83;;;-0.40;99.90;;;-1.54;100.00;97695.09;4983592;28;20038;-40
2023/03/04 02:36:51;;;;;;;37.90;17.48;;;-0.40;99.90;;;-1.51;100.00;97704.59;4981182;28;20038;-40
2023/03/04 02:39:19;;;;;;;33.60;17.58;;;-0.50;99.90;;;-1.54;100.00;97699.41;4982012;28;20088;-40
2023/03/04 02:41:51;;;;;;;34.72;15.85;;;-0.50;99.90;;;-1.54;100.00;97705.44;4983526;28;20776;-40
2023/03/04 02:44:26;;;;;;;34.67;17.13;;;-0.50;99.90;;;-1.55;100.00;97702.81;4974580;28;20046;-40
2023/03/04 02:46:53;;;;;;;32.78;16.75;;;-0.50;99.90;;;-1.61;100.00;97706.19;4978998;28;20325;-40
2023/03/04 02:49:20;;;;;;;37.60;17.13;;;-0.60;99.90;;;-1.65;100.00;97703.50;4982070;28;20036;-40
2023/03/04 02:51:50;;;;;;;37.67;17.15;;;-0.60;99.90;;;-1.80;100.00;97689.50;4983925;28;20034;-40
2023/03/04 02:54:19;;;;;;;33.08;16.73;;;-0.60;99.90;;;-1.71;100.00;97706.00;4987614;28;20045;-40
2023/03/04 02:56:53;;;;;;;33.38;16.92;;;-0.60;99.90;;;-1.74;100.00;97707.72;4985808;28;20121;-40
2023/03/04 02:59:21;;;;;;;34.83;16.50;;;-0.60;99.90;;;-1.78;100.00;97705.91;4984616;28;20034;-40
2023/03/04 03:01:47;;;;;;;33.80;16.40;;;-0.70;99.90;;;-1.99;100.00;97679.69;4985955;28;20038;-40
2023/03/04 03:04:14;;;;;;;35.10;16.88;;;-0.70;99.90;;;-1.89;100.00;97707.44;4981428;28;20030;-40
2023/03/04 03:06:40;;;;;;;33.88;17.08;;;-0.80;99.90;;;-1.95;100.00;97703.03;4989065;28;20052;-40
2023/03/04 03:09:06;;;;;;;32.42;16.92;;;-0.80;99.90;;;-1.95;100.00;97712.53;4985657;28;20062;-40
2023/03/04 03:11:32;;;;;;;32.95;16.75;;;-0.80;99.90;;;-2.01;100.00;97708.13;4994945;28;20034;-40
2023/03/04 03:13:58;;;;;;;35.67;17.48;;;-0.90;99.90;;;-2.08;100.00;97685.59;4987619;28;20030;-40
2023/03/04 03:16:24;;;;;;;34.35;17.02;;;-0.90;99.90;;;-2.00;100.00;97701.22;4989752;28;20037;-40
2023/03/04 03:18:50;;;;;;;35.40;18.15;;;-0.90;99.90;;;-2.01;100.00;97709.81;4979094;28;20025;-40
2023/03/04 03:21:16;;;;;;;38.72;17.50;;;-1.00;99.90;;;-2.07;100.00;97709.72;4988392;28;20762;-40
2023/03/04 03:23:42;;;;;;;32.03;16.40;;;-1.00;99.90;;;-2.09;100.00;97703.66;4990363;28;20088;-40
2023/03/04 03:26:08;;;;;;;41.00;17.23;;;-1.00;99.90;;;-2.06;100.00;97714.91;4984901;28;20764;-40
2023/03/04 03:28:35;;;;;;;36.47;17.08;;;-1.00;99.90;;;-2.18;100.00;97692.28;4987065;28;20036;-40
2023/03/04 03:31:01;;;;;;;37.45;18.42;;;-0.90;99.90;;;-2.11;100.00;97707.06;4981431;28;20121;-40
2023/03/04 03:33:26;;;;;;;42.72;18.10;;;-0.90;99.90;;;-2.14;100.00;97707.00;4990420;28;20233;-40
2023/03/04 03:35:52;;;;;;;35.17;16.58;;;-1.00;99.90;;;-2.13;100.00;97705.31;4986299;28;20056;-40
2023/03/04 03:38:18;;;;;;;40.80;18.20;;;-1.00;99.90;;;-2.18;100.00;97691.44;4989001;28;20070;-40
2023/03/04 03:40:43;;;;;;;32.40;16.48;;;-1.00;99.90;;;-2.13;100.00;97706.16;4983243;28;20048;-40
2023/03/04 03:43:09;;;;;;;35.85;18.25;;;-1.00;99.90;;;-2.16;100.00;97706.09;4983276;28;20237;-41
2023/03/04 03:45:35;;;;;;;38.08;16.67;;;-1.10;99.90;;;-2.13;100.00;97706.16;4987950;28;20460;-40
2023/03/04 03:48:01;;;;;;;35.90;17.80;;;-1.00;99.90;;;-2.14;100.00;97703.56;4987144;28;20039;-40
2023/03/04 03:50:28;;;;;;;40.95;17.75;;;-1.00;99.90;;;-2.18;100.00;97697.47;4979479;28;20521;-40
2023/03/04 03:52:54;;;;;;;39.83;17.92;;;-1.10;99.90;;;-2.24;100.00;97683.56;4985061;28;20025;-40
2023/03/04 03:55:20;;;;;;;36.95;17.42;;;-1.10;99.90;;;-2.09;100.00;97690.72;4985093;28;20431;-40
2023/03/04 03:57:46;;;;;;;38.15;18.23;;;-1.10;99.90;;;-2.14;100.00;97694.06;4988222;28;20174;-40
2023/03/04 04:00:13;;;;;;;34.60;16.80;;;-1.00;99.90;;;-2.17;100.00;97685.41;4986704;28;20037;-40
2023/03/04 04:02:39;;;;;;;36.83;17.35;;;-1.00;99.90;;;-2.21;100.00;97702.56;5003278;28;20037;-40
2023/03/04 04:05:07;;;;;;;35.03;16.90;;;-1.10;99.90;;;-2.24;100.00;97694.78;4984473;28;20107;-40
2023/03/04 04:07:32;;;;;;;42.00;17.67;;;-1.10;99.90;;;-2.29;100.00;97696.41;4996117;28;20041;-40
2023/03/04 04:09:58;;;;;;;35.85;17.52;;;-1.10;99.90;;;-2.37;100.00;97690.22;4990907;28;20046;-41
2023/03/04 04:12:24;;;;;;;39.03;17.50;;;-1.20;99.90;;;-2.41;100.00;97702.19;4987934;28;20033;-40
2023/03/04 04:14:50;;;;;;;37.25;17.95;;;-1.20;99.90;;;-2.43;100.00;97703.03;4982276;28;20455;-40
2023/03/04 04:17:16;;;;;;;36.90;17.42;;;-1.30;99.90;;;-2.47;100.00;97701.22;4981238;28;20490;-40
2023/03/04 04:19:41;;;;;;;36.08;17.60;;;-1.30;99.90;;;-2.46;100.00;97706.41;4989615;28;20498;-40
2023/03/04 04:22:13;;;;;;;36.55;17.63;;;-1.30;99.90;;;-2.50;100.00;97697.72;4986021;28;20034;-40
2023/03/04 04:24:39;;;;;;;33.83;15.98;;;-1.30;99.90;;;-2.50;100.00;97705.47;4980291;28;20109;-40
2023/03/04 04:27:04;;;;;;;38.30;17.25;;;-1.40;99.90;;;-2.59;100.00;97704.44;4986540;28;20044;-40
2023/03/04 04:29:30;;;;;;;33.90;17.02;;;-1.40;99.90;;;-2.56;100.00;97705.38;4982546;28;20030;-40
2023/03/04 04:31:56;;;;;;;37.00;16.50;;;-1.40;99.90;;;-2.55;100.00;97704.53;4977446;28;20058;-41
2023/03/04 04:34:22;;;;;;;36.70;16.77;;;-1.40;99.90;;;-2.55;100.00;97695.91;4991273;28;20530;-40
2023/03/04 04:36:47;;;;;;;39.90;18.75;;;-1.40;99.90;;;-2.55;100.00;97695.91;4983459;28;20095;-40
2023/03/04 04:39:13;;;;;;;36.72;18.02;;;-1.40;99.90;;;-2.56;100.00;97707.09;4984889;28;20490;-40
2023/03/04 04:41:41;;;;;;;37.67;17.15;;;-1.40;99.90;;;-2.61;100.00;97706.97;4986897;28;20042;-40
2023/03/04 04:44:08;;;;;;;37.85;17.70;;;-1.40;99.90;;;-2.64;100.00;97708.63;4987826;28;20115;-41
2023/03/04 04:46:34;;;;;;;38.55;17.73;;;-1.40;99.90;;;-2.70;100.00;97701.63;4987365;28;20037;-40
2023/03/04 04:49:00;;;;;;;34.13;17.55;;;-1.50;99.90;;;-2.69;100.00;97708.56;4981945;28;20072;-40
2023/03/04 04:51:26;;;;;;;39.53;17.17;;;-1.50;99.90;;;-2.77;100.00;97702.34;4988884;28;20617;-40
2023/03/04 04:53:52;;;;;;;39.30;17.45;;;-1.50;99.90;;;-2.78;100.00;97704.06;4986055;28;20038;-40
2023/03/04 04:56:22;;;;;;;35.28;16.95;;;-1.60;99.90;;;-2.71;100.00;97708.53;4982275;28;20324;-40
2023/03/04 04:58:48;;;;;;;35.95;17.13;;;-1.60;99.90;;;-2.76;100.00;97706.69;4987869;28;20029;-40
2023/03/04 05:01:14;;;;;;;33.60;16.15;;;-1.60;99.90;;;-2.73;100.00;97709.31;4983119;28;20106;-40
2023/03/04 05:03:41;;;;;;;34.15;16.92;;;-1.70;99.90;;;-2.75;100.00;97708.41;4981450;28;20503;-40
2023/03/04 05:06:10;;;;;;;35.95;17.00;;;-1.70;99.90;;;-2.77;100.00;97707.50;4985958;28;20241;-42
2023/03/04 05:08:36;;;;;;;32.80;15.98;;;-1.70;99.90;;;-2.88;100.00;97700.41;4985778;28;20034;-40
2023/03/04 05:11:02;;;;;;;36.20;16.38;;;-1.70;99.90;;;-2.88;100.00;97715.91;4978099;28;20104;-40
2023/03/04 05:13:28;;;;;;;39.42;17.77;;;-1.70;99.90;;;-2.88;100.00;97718.47;4987877;28;20042;-40
2023/03/04 05:15:56;;;;;;;37.90;17.08;;;-1.70;99.90;;;-2.90;100.00;97719.31;4981467;28;20060;-41
2023/03/04 05:18:24;;;;;;;37.13;17.48;;;-1.80;99.90;;;-2.94;100.00;97723.53;4987936;28;20277;-40
2023/03/04 05:20:56;;;;;;;36.42;18.33;;;-1.80;99.90;;;-3.03;100.00;97715.59;4987644;28;20042;-40
2023/03/04 05:23:23;;;;;;;32.80;17.58;;;-1.80;99.90;;;-2.97;100.00;97718.28;4987709;28;20457;-40
2023/03/04 05:25:49;;;;;;;39.30;18.23;;;-1.80;99.90;;;-3.03;100.00;97718.19;4984349;28;20036;-40
2023/03/04 05:28:16;;;;;;;35.40;17.73;;;-1.80;99.90;;;-3.03;100.00;97723.34;4985033;28;20026;-41
2023/03/04 05:30:44;;;;;;;41.28;16.95;;;-1.80;99.90;;;-3.03;100.00;97728.50;4979617;28;20468;-40
2023/03/04 05:33:11;;;;;;;41.55;17.98;;;-1.80;99.90;;;-3.03;100.00;97718.19;4985993;28;20017;-40
2023/03/04 05:35:39;;;;;;;41.88;18.10;;;-1.90;99.90;;;-3.08;100.00;97728.38;4982582;28;20038;-41
2023/03/04 05:38:07;;;;;;;40.60;17.63;;;-1.90;99.90;;;-3.14;100.00;97733.41;4987341;28;20037;-40
2023/03/04 05:40:33;;;;;;;40.38;17.40;;;-1.90;99.90;;;-3.16;100.00;97729.03;4985806;28;20042;-40
2023/03/04 05:42:59;;;;;;;41.58;18.73;;;-2.00;99.90;;;-3.15;100.00;97735.97;4983840;28;20036;-40
2023/03/04 05:45:25;;;;;;;37.47;16.98;;;-2.00;99.90;;;-3.12;100.00;97724.00;4982747;28;20130;-40
2023/03/04 05:47:52;;;;;;;37.80;18.08;;;-2.00;99.90;;;-3.12;100.00;97730.88;4990147;28;20551;-40
2023/03/04 05:50:18;;;;;;;41.17;18.33;;;-2.00;99.90;;;-3.19;100.00;97729.00;4987240;28;20025;-40
2023/03/04 05:52:43;;;;;;;43.28;18.52;;;-2.00;99.90;;;-3.25;100.00;97716.81;4984271;28;20386;-40
2023/03/04 05:55:09;;;;;;;42.15;18.73;;;-2.10;99.90;;;-3.21;100.00;97728.97;4984007;28;20038;-40
2023/03/04 05:57:35;;;;;;;36.30;17.45;;;-2.10;99.90;;;-3.14;100.00;97732.53;4984974;28;20034;-39
2023/03/04 06:00:04;;;;;;;41.38;18.50;;;-2.10;99.90;;;-3.21;100.00;97733.22;4982991;28;20322;-40
2023/03/04 06:02:30;;;;;;;40.55;18.92;;;-2.10;99.90;;;-3.26;100.00;97736.56;4980507;28;20160;-40
2023/03/04 06:04:56;;;;;;;39.78;18.13;;;-2.10;99.90;;;-3.18;100.00;97746.19;4977325;28;20049;-40
2023/03/04 06:07:22;;;;;;;46.35;20.52;;;-2.10;99.90;;;-3.22;100.00;97742.69;4988324;28;20390;-40
2023/03/04 06:09:47;;;;;;;44.75;19.42;;;-2.10;99.90;;;-3.27;100.00;97742.59;4986007;28;20037;-40
2023/03/04 06:12:13;;;;;;;43.55;18.77;;;-2.10;99.90;;;-3.28;100.00;97748.56;4980130;28;20494;-40
2023/03/04 06:14:39;;;;;;;43.55;18.45;;;-2.20;99.90;;;-3.25;100.00;97737.44;4975864;28;20030;-40
2023/03/04 06:17:04;;;;;;;45.05;20.13;;;-2.20;99.90;;;-3.27;100.00;97728.81;4974577;28;20038;-40
2023/03/04 06:19:30;;;;;;;48.13;20.13;;;-2.20;99.90;;;-3.27;100.00;97740.00;4978693;28;20037;-40
2023/03/04 06:21:56;;;;;;;42.38;19.40;;;-2.10;99.90;;;-3.23;100.00;97747.81;4975800;28;20115;-40
2023/03/04 06:24:22;;;;;;;50.22;20.05;;;-2.10;99.90;;;-3.23;100.00;97753.84;4978703;28;20173;-39
2023/03/04 06:26:47;;;;;;;43.92;19.65;;;-2.10;99.90;;;-3.20;100.00;97748.75;4978944;28;20616;-40
2023/03/04 06:29:13;;;;;;;48.85;20.13;;;-2.10;99.90;;;-3.18;100.00;97756.53;4975646;28;20045;-39
2023/03/04 06:31:40;;;;;;;45.67;19.83;;;-2.10;99.90;;;-3.14;100.00;97766.06;4976307;28;20117;-40
2023/03/04 06:34:07;;;;;;;52.45;21.35;;;-2.10;99.90;;;-3.13;100.00;97771.25;4980042;28;20036;-39
2023/03/04 06:36:33;;;;;;;45.28;19.88;;;-2.10;99.90;;;-3.31;100.00;97737.31;4977436;28;20062;-40
2023/03/04 06:39:03;;;;;;;52.30;19.70;;;-2.00;99.90;;;-3.08;100.00;97772.25;4976781;28;20053;-40
2023/03/04 06:41:29;;;;;;;50.88;20.65;;;-2.00;99.90;;;-2.94;100.00;97776.88;4979688;28;20038;-39
2023/03/04 06:43:55;;;;;;;62.95;23.48;;;-1.90;99.90;;;-3.03;100.00;97753.41;4975333;28;20706;-40
2023/03/04 06:46:21;;;;;;;55.47;21.35;;;-1.80;99.90;;;-2.77;100.00;97774.63;4981815;28;20030;-40
2023/03/04 06:48:46;;;;;;;54.65;21.17;;;-1.70;99.90;;;-2.57;100.00;97781.09;4984148;28;20494;-40
2023/03/04 06:51:13;;;;;;;58.45;21.92;;;-1.60;99.90;;;-2.50;100.00;97782.09;4987712;28;20883;-40
2023/03/04 06:53:40;;;;;;;54.72;21.75;;;-1.40;99.90;;;-2.35;100.00;97795.34;4988238;28;20496;-40
2023/03/04 06:56:08;;;;;;;50.67;20.67;;;-1.40;99.90;;;-2.25;100.00;97788.63;4991618;28;20038;-40
2023/03/04 06:58:35;;;;;;;56.58;22.60;;;-1.20;99.90;;;-2.19;100.00;97788.75;4981440;28;20117;-40
2023/03/04 07:01:16;;;;;;;49.90;21.58;;;-1.10;99.90;;;-2.08;100.00;97788.97;4977261;28;20045;-40
2023/03/04 07:03:43;;;;;;;56.65;22.25;;;-1.00;99.90;;;-1.94;100.00;97794.38;4980404;28;20185;-40
2023/03/04 07:06:15;;;;;;;54.80;21.27;;;-0.90;99.90;;;-1.88;100.00;97791.03;4983613;28;20026;-40
2023/03/04 07:08:41;;;;;;;;;;;-0.80;99.90;;;-1.77;100.00;97792.97;4990827;28;20029;-40
2023/03/04 07:11:08;;;;;;;54.20;20.98;;;-0.70;99.90;;;-1.69;100.00;97794.84;4980071;28;20245;-40
2023/03/04 07:13:37;;;;;;;48.83;20.33;;;-0.60;99.90;;;-1.59;100.00;97801.91;4984313;28;20469;-40
2023/03/04 07:16:05;;;;;;;45.58;20.67;;;-0.50;99.90;;;-1.50;100.00;97802.06;4979180;28;20034;-40
2023/03/04 07:18:30;;;;;;;45.72;19.50;;;-0.40;99.90;;;-1.33;100.00;97809.25;4979754;28;20092;-40
2023/03/04 07:20:56;;;;;;;42.35;19.42;;;-0.30;99.90;;;-1.21;100.00;97807.72;4981194;28;20049;-40
2023/03/04 07:23:22;;;;;;;46.38;18.63;;;-0.10;99.90;;;-1.08;100.00;97813.09;4978172;28;20562;-40
2023/03/04 07:25:49;;;;;;;46.40;18.80;;;0.00;99.90;;;-1.05;100.00;97811.44;4979271;28;20040;-40
2023/03/04 07:28:15;;;;;;;38.10;17.83;;;0.00;99.90;;;-0.98;100.00;97818.44;4996646;23;20030;-38
2023/03/04 07:30:41;;;;;;;37.38;17.92;;;0.10;99.90;;;-0.80;100.00;97822.16;4963056;28;20046;-37
2023/03/04 07:33:06;;;;;;;44.80;19.05;;;0.20;99.90;;;-0.70;100.00;97820.56;4964437;28;20105;-38
2023/03/04 07:35:32;;;;;;;43.03;18.13;;;0.30;99.90;;;-0.77;100.00;97817.91;4960919;28;20490;-38
2023/03/04 07:37:58;;;;;;;39.95;19.33;;;0.40;99.90;;;-0.82;100.00;97821.28;4959642;28;20116;-38
2023/03/04 07:40:23;;;;;;;37.70;17.88;;;0.40;99.90;;;-0.71;100.00;97824.88;4957664;28;20329;-37
2023/03/04 07:42:54;;;;;;;38.47;18.42;;;0.40;99.90;;;-0.70;100.00;97834.41;4959185;28;20049;-38
2023/03/04 07:45:21;;;;;;;42.85;18.80;;;0.40;99.90;;;-0.65;100.00;97831.88;4964005;28;20089;-38
2023/03/04 07:47:47;;;;;;;36.80;18.00;;;0.40;99.90;;;-0.51;100.00;97830.34;4964119;28;20153;-37
2023/03/04 07:50:13;;;;;;;36.10;17.60;;;0.50;99.90;;;-0.27;100.00;97837.59;4958149;28;20022;-37
2023/03/04 07:52:41;;;;;;;36.30;17.10;;;0.60;99.90;;;-0.27;100.00;97837.59;4962404;28;20113;-38
2023/03/04 07:55:11;;;;;;;31.77;16.42;;;0.70;99.90;;;-0.30;100.00;97842.72;4961729;28;20034;-37
2023/03/04 07:57:41;;;;;;;37.97;16.77;;;0.70;99.90;;;-0.42;100.00;97846.00;4964677;28;20502;-37
2023/03/04 08:00:09;;;;;;;34.63;17.35;;;0.70;99.90;;;-0.61;100.00;97834.53;4959327;28;20048;-37
2023/03/04 08:02:34;;;;;;;35.10;15.77;;;0.60;99.90;;;-0.59;100.00;97850.97;4964959;28;20033;-37
2023/03/04 08:05:00;;;;;;;34.83;16.70;;;0.60;99.90;;;-0.56;100.00;97854.44;4966996;28;20514;-38
2023/03/04 08:07:26;;;;;;;30.40;16.15;;;0.50;99.90;;;-0.58;100.00;97847.50;4972574;28;20046;-37
2023/03/04 08:09:51;;;;;;;32.97;15.70;;;0.50;99.90;;;-0.55;100.00;97846.69;4961478;28;20426;-37
2023/03/04 08:12:17;;;;;;;29.95;15.25;;;0.50;99.90;;;-0.58;100.00;97854.41;4970267;28;20179;-37
2023/03/04 08:14:43;;;;;;;32.15;15.20;;;0.50;99.90;;;-0.47;100.00;97850.25;4971248;28;20030;-37
2023/03/04 08:17:08;;;;;;;37.88;16.27;;;0.60;99.90;;;-0.50;100.00;97846.75;4968545;28;20116;-37
2023/03/04 08:19:35;;;;;;;34.25;16.02;;;0.60;99.90;;;-0.34;100.00;97859.09;4975483;28;20540;-37
2023/03/04 08:22:02;;;;;;;33.05;15.90;;;0.60;99.90;;;-0.25;100.00;97864.41;4973229;28;20030;-37
2023/03/04 08:24:27;;;;;;;34.80;16.30;;;0.70;99.90;;;-0.12;100.00;97859.38;4973099;28;20043;-37
2023/03/04 08:26:53;;;;;;;33.13;16.08;;;0.80;99.90;;;-0.18;100.00;97849.78;4965938;28;20038;-37
2023/03/04 08:29:22;;;;;;;33.33;15.38;;;0.90;99.90;;;0.01;100.00;97865.59;4971715;28;20466;-38
2023/03/04 08:31:50;;;;;;;34.90;16.60;;;1.00;99.90;;;0.07;100.00;97865.63;4974512;28;20236;-37
2023/03/04 08:34:18;;;;;;;34.53;16.15;;;1.00;99.90;;;0.12;100.00;97864.84;4967614;28;20038;-37
2023/03/04 08:36:44;;;;;;;31.98;15.80;;;1.10;99.90;;;0.12;100.00;97863.97;4973109;28;20177;-37
2023/03/04 08:39:13;;;;;;;40.47;16.88;;;1.10;99.90;;;-0.11;100.00;97867.16;4975816;28;20039;-37
2023/03/04 08:41:39;;;;;;;34.60;16.88;;;1.00;99.90;;;-0.10;100.00;97863.72;4970276;28;20034;-37
2023/03/04 08:44:07;;;;;;;31.17;15.90;;;1.00;99.90;;;-0.06;100.00;97872.41;4968229;28;20062;-37
2023/03/04 08:46:33;;;;;;;39.10;17.92;;;1.00;99.90;;;-0.26;100.00;97866.97;4971133;28;20117;-38
2023/03/04 08:48:59;;;;;;;33.80;17.17;;;1.00;99.90;;;-0.08;100.00;97876.69;4970400;28;20117;-37
2023/03/04 08:51:24;;;;;;;38.55;17.08;;;0.90;99.90;;;-0.02;100.00;97874.16;4975725;28;20037;-37
2023/03/04 08:53:51;;;;;;;36.10;16.60;;;1.00;99.90;;;0.07;100.00;97863.03;4962389;28;20058;-37
2023/03/04 08:56:17;;;;;;;33.30;16.45;;;1.10;99.90;;;0.21;100.00;97868.41;4972854;28;20125;-37
2023/03/04 08:58:43;;;;;;;37.40;16.92;;;1.20;99.90;;;0.24;100.00;97861.53;4965516;28;20130;-38
2023/03/04 09:01:11;;;;;;;38.53;17.38;;;1.30;99.90;;;0.25;100.00;97863.28;4963292;28;20046;-38
2023/03/04 09:03:38;;;;;;;37.17;17.00;;;1.30;99.90;;;0.47;100.00;97866.97;4966004;28;20030;-38
2023/03/04 09:06:05;;;;;;;35.78;17.38;;;1.50;99.90;;;0.56;100.00;97872.25;4969948;28;20113;-38
2023/03/04 09:08:31;;;;;;;33.00;16.65;;;1.50;99.90;;;0.71;100.00;97879.31;4969856;28;20322;-38
2023/03/04 09:10:57;;;;;;;34.00;16.73;;;1.70;99.90;;;0.78;100.00;97882.84;4969047;28;21576;-38
2023/03/04 09:13:24;;;;;;;31.58;16.27;;;1.80;99.90;;;0.99;100.00;97882.19;4969731;28;20046;-38
2023/03/04 09:15:52;;;;;;;34.50;16.67;;;1.90;99.90;;;0.83;100.00;97857.81;4969751;28;20038;-38
2023/03/04 09:18:20;;;;;;;34.70;16.40;;;1.90;99.90;;;1.01;100.00;97877.88;4967942;28;20033;-38
2023/03/04 09:20:47;;;;;;;35.08;16.25;;;2.00;99.90;;;1.03;100.00;97883.09;4967040;28;20041;-38
2023/03/04 09:23:13;;;;;;;36.10;16.55;;;1.90;99.90;;;0.97;100.00;97877.81;4966513;28;20038;-38
2023/03/04 09:25:41;;;;;;;31.15;16.15;;;2.00;99.90;;;1.10;100.00;97877.09;4965050;28;20034;-38
2023/03/04 09:28:06;;;;;;;32.83;16.00;;;2.10;99.90;;;1.14;100.00;97878.84;4968468;28;20046;-38
2023/03/04 09:30:34;;;;;;;31.60;15.52;;;2.10;99.90;;;1.11;100.00;97878.81;4967240;28;20123;-38
2023/03/04 09:33:00;;;;;;;31.75;15.32;;;2.10;99.90;;;1.23;100.00;97883.25;4969846;28;20490;-38
2023/03/04 09:35:28;;;;;;;34.33;16.10;;;2.20;99.90;;;1.25;100.00;97879.78;4969276;28;20375;-38
2023/03/04 09:37:54;;;;;;;32.53;15.75;;;2.20;99.90;;;1.35;100.00;97883.34;4969520;28;20842;-38
2023/03/04 09:40:48;;;;;;;30.85;15.65;;;2.20;99.90;;;1.35;100.00;97880.75;4966571;28;20044;-38
2023/03/04 09:43:28;;;;;;;27.98;14.73;;;2.30;99.90;;;1.52;100.00;97879.09;4965427;28;20136;-38
2023/03/04 09:46:02;;;;;;;30.83;15.45;;;2.40;99.90;;;1.53;100.00;97880.00;4963502;28;20084;-38
2023/03/04 09:48:37;;;;;;;29.10;14.77;;;2.50;99.90;;;1.53;100.00;97867.00;4970807;28;20573;-38
2023/03/04 09:51:53;;;;;;;29.90;14.90;;;2.60;99.90;;;1.77;100.00;97873.19;4962936;28;20045;-38
2023/03/04 09:54:54;;;;;;;25.63;15.07;;;2.80;99.90;;;2.04;100.00;97875.94;4971381;28;20311;-38
2023/03/04 09:57:39;;;;;;;30.38;15.10;;;3.00;99.90;;;2.19;100.00;97875.16;4970696;28;20026;-41
2023/03/04 10:00:22;;;;;;;30.67;16.05;;;3.20;99.90;;;2.23;100.00;97882.09;4960960;28;20035;-38
2023/03/04 10:03:14;;;;;;;29.67;15.05;;;3.30;99.90;;;2.51;100.00;97878.72;4966348;28;20037;-38
2023/03/04 10:05:55;;;;;;;26.10;14.67;;;3.50;99.90;;;2.93;100.00;97890.97;4966946;28;20532;-38